createdAt,value
2022-12-18T00:01:32.736Z,53.17
2022-12-18T00:04:05.833Z,33.33
2022-12-18T00:06:34.859Z,32.30
2022-12-18T00:09:04.006Z,31.95
2022-12-18T00:11:33.051Z,62.08
2022-12-18T00:14:01.984Z,31.48
2022-12-18T00:16:32.001Z,27.10
2022-12-18T00:19:01.142Z,42.63
2022-12-18T00:21:30.706Z,29.92
2022-12-18T00:24:00.174Z,27.05
2022-12-18T00:26:31.698Z,29.25
2022-12-18T00:29:11.398Z,35.95
2022-12-18T00:31:39.440Z,28.63
2022-12-18T00:34:07.567Z,40.72
2022-12-18T00:36:36.283Z,41.97
2022-12-18T00:39:06.615Z,38.53
2022-12-18T00:41:53.179Z,26.92
2022-12-18T00:44:21.039Z,29.40
2022-12-18T00:46:49.584Z,28.15
2022-12-18T00:49:20.261Z,24.20
2022-12-18T00:51:49.138Z,25.00
2022-12-18T00:54:18.836Z,24.42
2022-12-18T00:56:49.325Z,22.33
2022-12-18T00:59:19.404Z,22.48
2022-12-18T01:01:48.377Z,25.13
2022-12-18T01:04:16.412Z,21.73
2022-12-18T01:06:46.825Z,24.15
2022-12-18T01:09:14.949Z,22.42
2022-12-18T01:11:42.627Z,20.80
2022-12-18T01:14:12.128Z,18.92
2022-12-18T01:16:39.870Z,19.92
2022-12-18T01:19:07.771Z,18.00
2022-12-18T01:21:35.383Z,22.60
2022-12-18T01:24:06.408Z,22.20
2022-12-18T01:26:34.753Z,17.42
2022-12-18T01:29:02.483Z,22.02
2022-12-18T01:31:33.919Z,18.75
2022-12-18T01:34:06.102Z,20.23
2022-12-18T01:36:39.993Z,19.88
2022-12-18T01:39:14.546Z,22.38
2022-12-18T01:42:02.302Z,20.15
2022-12-18T01:44:57.785Z,24.42
2022-12-18T01:47:37.521Z,20.25
2022-12-18T01:50:18.263Z,21.63
2022-12-18T01:52:54.694Z,22.25
2022-12-18T01:55:27.383Z,21.10
2022-12-18T01:57:59.775Z,19.40
2022-12-18T02:00:29.060Z,20.92
2022-12-18T02:02:56.819Z,20.63
2022-12-18T02:05:59.911Z,19.30
2022-12-18T02:09:08.067Z,20.05
2022-12-18T02:11:41.115Z,18.63
2022-12-18T02:14:29.669Z,19.83
2022-12-18T02:17:12.661Z,19.35
2022-12-18T02:20:05.614Z,20.23
2022-12-18T02:23:10.257Z,18.98
2022-12-18T02:26:20.966Z,18.52
2022-12-18T02:29:00.015Z,17.00
2022-12-18T02:31:37.859Z,19.40
2022-12-18T02:34:09.386Z,20.17
2022-12-18T02:36:44.702Z,18.92
2022-12-18T02:39:15.891Z,18.73
2022-12-18T02:41:56.383Z,19.83
2022-12-18T02:44:25.681Z,19.73
2022-12-18T02:46:55.434Z,22.23
2022-12-18T02:49:55.183Z,20.58
2022-12-18T02:52:41.737Z,23.10
2022-12-18T02:56:08.143Z,20.17
2022-12-18T02:59:03.326Z,20.23
2022-12-18T03:02:20.566Z,22.52
2022-12-18T03:05:13.372Z,23.30
2022-12-18T03:08:02.143Z,18.52
2022-12-18T03:10:39.930Z,21.27
2022-12-18T03:13:15.015Z,19.85
2022-12-18T03:15:52.941Z,18.55
2022-12-18T03:18:26.899Z,19.58
2022-12-18T03:20:59.694Z,20.23
2022-12-18T03:23:36.136Z,19.08
2022-12-18T03:26:11.575Z,21.40
2022-12-18T03:28:51.662Z,21.08
2022-12-18T03:31:24.681Z,16.98
2022-12-18T03:33:59.931Z,17.02
2022-12-18T03:36:36.300Z,18.73
2022-12-18T03:39:04.425Z,17.45
2022-12-18T03:41:52.094Z,18.33
2022-12-18T03:45:14.851Z,17.77
2022-12-18T03:48:17.213Z,15.38
2022-12-18T03:50:57.369Z,18.80
2022-12-18T03:53:37.841Z,17.13
2022-12-18T03:56:09.088Z,17.27
2022-12-18T03:58:43.493Z,18.38
2022-12-18T04:01:33.551Z,15.57
2022-12-18T04:04:05.638Z,17.88
2022-12-18T04:06:38.253Z,19.25
2022-12-18T04:09:06.574Z,15.93
2022-12-18T04:11:38.999Z,18.10
2022-12-18T04:16:35.821Z,16.63
2022-12-18T04:19:06.187Z,19.13
2022-12-18T04:21:40.058Z,20.35
2022-12-18T04:24:08.196Z,19.42
2022-12-18T04:26:38.069Z,21.95
2022-12-18T04:29:16.344Z,19.83
2022-12-18T04:31:44.028Z,21.73
2022-12-18T04:34:12.479Z,19.60
2022-12-18T04:36:46.462Z,22.70
2022-12-18T04:39:18.480Z,23.50
2022-12-18T04:41:46.967Z,22.42
2022-12-18T04:44:15.598Z,30.63
2022-12-18T04:46:43.972Z,33.40
2022-12-18T04:49:11.930Z,30.42
2022-12-18T04:51:40.058Z,24.70
2022-12-18T04:54:07.851Z,32.15
2022-12-18T04:56:35.413Z,27.85
2022-12-18T04:59:02.977Z,25.23
2022-12-18T05:01:34.497Z,23.17
2022-12-18T05:04:03.620Z,26.10
2022-12-18T05:06:31.278Z,27.48
2022-12-18T05:08:59.037Z,28.77
2022-12-18T05:11:26.529Z,21.60
2022-12-18T05:13:54.079Z,26.13
2022-12-18T05:16:21.717Z,22.73
2022-12-18T05:18:49.308Z,42.70
2022-12-18T05:21:16.935Z,30.85
2022-12-18T05:23:45.034Z,30.63
2022-12-18T05:26:18.779Z,32.47
2022-12-18T05:28:47.128Z,26.67
2022-12-18T05:31:15.625Z,25.92
2022-12-18T05:33:43.838Z,25.95
2022-12-18T05:36:12.504Z,26.13
2022-12-18T05:38:40.813Z,24.70
2022-12-18T05:41:09.851Z,27.13
2022-12-18T05:43:40.700Z,31.02
2022-12-18T05:46:18.644Z,44.85
2022-12-18T05:48:46.854Z,24.90
2022-12-18T05:51:18.653Z,23.38
2022-12-18T05:53:46.523Z,23.42
2022-12-18T05:56:18.518Z,26.73
2022-12-18T05:58:47.249Z,25.25
2022-12-18T06:01:20.262Z,23.00
2022-12-18T06:03:48.034Z,24.33
2022-12-18T06:06:23.465Z,27.52
2022-12-18T06:08:53.772Z,26.92
2022-12-18T06:11:27.245Z,29.10
2022-12-18T06:13:59.181Z,32.20
2022-12-18T06:16:28.626Z,23.25
2022-12-18T06:19:05.415Z,25.45
2022-12-18T06:21:33.765Z,23.05
2022-12-18T06:26:29.032Z,25.55
2022-12-18T06:28:56.936Z,22.95
2022-12-18T06:31:25.739Z,22.10
2022-12-18T06:33:53.365Z,22.70
2022-12-18T06:36:21.946Z,22.77
2022-12-18T06:38:49.955Z,23.27
2022-12-18T06:41:21.467Z,21.75
2022-12-18T06:43:48.998Z,20.65
2022-12-18T06:46:17.006Z,23.02
2022-12-18T06:48:49.865Z,29.02
2022-12-18T06:51:23.487Z,33.22
2022-12-18T06:53:51.317Z,25.45
2022-12-18T06:56:18.928Z,29.05
2022-12-18T06:58:46.588Z,26.08
2022-12-18T07:01:15.238Z,24.27
2022-12-18T07:03:43.975Z,23.17
2022-12-18T07:06:21.271Z,24.67
2022-12-18T07:08:50.842Z,26.83
2022-12-18T07:11:19.593Z,28.17
2022-12-18T07:13:47.650Z,30.38
2022-12-18T07:16:25.232Z,24.40
2022-12-18T07:18:56.827Z,26.33
2022-12-18T07:21:26.179Z,28.67
2022-12-18T07:23:54.069Z,33.10
2022-12-18T07:26:23.152Z,28.42
2022-12-18T07:28:51.824Z,26.15
2022-12-18T07:33:51.289Z,29.45
2022-12-18T07:36:19.914Z,25.67
2022-12-18T07:41:17.354Z,28.50
2022-12-18T07:43:45.432Z,22.45
2022-12-18T07:46:17.777Z,26.80
2022-12-18T07:48:49.455Z,29.25
2022-12-18T07:51:19.550Z,35.00
2022-12-18T07:53:52.226Z,38.05
2022-12-18T07:56:30.405Z,31.50
2022-12-18T07:59:00.646Z,31.95
2022-12-18T08:01:28.731Z,31.83
2022-12-18T08:03:56.541Z,30.42
2022-12-18T08:06:24.835Z,27.42
2022-12-18T08:08:54.871Z,29.60
2022-12-18T08:11:24.574Z,29.65
2022-12-18T08:13:52.388Z,29.15
2022-12-18T08:16:21.362Z,57.13
2022-12-18T08:18:49.749Z,26.95
2022-12-18T08:21:25.478Z,24.27
2022-12-18T08:23:56.346Z,27.27
2022-12-18T08:26:25.691Z,25.10
2022-12-18T08:28:56.905Z,25.42
2022-12-18T08:31:26.749Z,26.60
2022-12-18T08:33:55.426Z,33.03
2022-12-18T08:36:24.933Z,30.70
2022-12-18T08:38:53.365Z,29.83
2022-12-18T08:41:21.750Z,29.80
2022-12-18T08:44:07.590Z,26.17
2022-12-18T08:46:42.038Z,26.05
2022-12-18T08:49:11.056Z,24.20
2022-12-18T08:51:39.187Z,24.35
2022-12-18T08:54:07.494Z,26.23
2022-12-18T08:56:35.923Z,58.25
2022-12-18T08:59:03.969Z,53.35
2022-12-18T09:01:31.722Z,34.03
2022-12-18T09:03:59.725Z,43.35
2022-12-18T09:06:27.603Z,27.67
2022-12-18T09:08:55.295Z,26.20
2022-12-18T09:11:26.576Z,27.10
2022-12-18T09:13:55.802Z,71.93
2022-12-18T09:16:31.733Z,65.22
2022-12-18T09:19:00.948Z,25.75
2022-12-18T09:24:00.945Z,32.90
2022-12-18T09:26:29.056Z,28.38
2022-12-18T09:28:56.958Z,26.17
2022-12-18T09:31:25.849Z,23.13
2022-12-18T09:33:53.492Z,27.05
2022-12-18T09:36:21.068Z,27.88
2022-12-18T09:38:49.508Z,29.13
2022-12-18T09:41:38.783Z,34.03
2022-12-18T09:44:15.423Z,38.10
2022-12-18T09:47:10.991Z,36.00
2022-12-18T09:49:48.401Z,32.83
2022-12-18T09:52:26.387Z,29.02
2022-12-18T09:55:05.888Z,31.30
2022-12-18T09:57:38.252Z,26.45
2022-12-18T10:00:21.927Z,28.42
2022-12-18T10:03:10.676Z,29.08
2022-12-18T10:06:02.533Z,31.75
2022-12-18T10:08:54.559Z,33.60
2022-12-18T10:11:40.945Z,34.05
2022-12-18T10:14:19.198Z,34.25
2022-12-18T10:17:31.360Z,33.50
2022-12-18T10:20:11.315Z,37.28
2022-12-18T10:22:53.297Z,32.03
2022-12-18T10:25:33.925Z,53.83
2022-12-18T10:28:22.743Z,30.45
2022-12-18T10:30:50.473Z,26.52
2022-12-18T10:33:22.456Z,34.75
2022-12-18T10:35:52.807Z,38.00
2022-12-18T10:38:27.733Z,32.58
2022-12-18T10:40:58.357Z,46.80
2022-12-18T10:43:34.344Z,55.65
2022-12-18T10:46:18.003Z,53.20
2022-12-18T10:48:55.400Z,44.78
2022-12-18T10:51:34.518Z,43.53
2022-12-18T10:54:15.247Z,30.65
2022-12-18T10:56:44.283Z,27.88
2022-12-18T10:59:16.016Z,31.90
2022-12-18T11:01:56.820Z,34.75
2022-12-18T11:04:28.644Z,40.60
2022-12-18T11:06:57.649Z,33.03
2022-12-18T11:09:33.213Z,29.35
2022-12-18T11:12:16.018Z,56.10
2022-12-18T11:14:54.029Z,28.10
2022-12-18T11:17:35.769Z,31.42
2022-12-18T11:20:20.111Z,30.27
2022-12-18T11:22:59.622Z,26.98
2022-12-18T11:25:33.305Z,26.60
2022-12-18T11:28:29.119Z,26.50
2022-12-18T11:31:18.402Z,20.98
2022-12-18T11:34:26.752Z,33.80
2022-12-18T11:36:46.498Z,29.63
2022-12-18T11:39:39.615Z,29.15
2022-12-18T11:42:21.094Z,39.30
2022-12-18T11:45:21.914Z,78.22
2022-12-18T11:48:06.691Z,57.45
2022-12-18T11:50:37.435Z,61.95
2022-12-18T11:53:06.444Z,55.10
2022-12-18T11:56:02.758Z,48.25
2022-12-18T11:59:08.368Z,101.68
2022-12-18T12:01:45.040Z,59.65
2022-12-18T12:04:48.570Z,50.20
2022-12-18T12:07:28.235Z,44.85
2022-12-18T12:10:14.433Z,35.88
2022-12-18T12:13:12.876Z,33.70
2022-12-18T12:16:16.395Z,33.95
2022-12-18T12:18:53.573Z,32.38
2022-12-18T12:21:42.178Z,35.90
2022-12-18T12:24:36.945Z,42.03
2022-12-18T12:27:14.983Z,57.25
2022-12-18T12:30:15.250Z,35.20
2022-12-18T12:33:17.310Z,40.75
2022-12-18T12:35:53.660Z,28.92
2022-12-18T12:38:38.228Z,25.38
2022-12-18T12:41:30.522Z,80.03
2022-12-18T12:44:04.000Z,26.00
2022-12-18T12:46:39.156Z,25.27
2022-12-18T12:49:18.403Z,44.63
2022-12-18T12:52:04.433Z,44.85
2022-12-18T12:54:34.518Z,45.30
2022-12-18T12:57:38.594Z,67.97
2022-12-18T13:00:07.321Z,53.33
2022-12-18T13:02:49.342Z,48.08
2022-12-18T13:05:35.095Z,44.90
2022-12-18T13:08:12.951Z,47.28
2022-12-18T13:10:42.562Z,37.83
2022-12-18T13:13:20.428Z,45.20
2022-12-18T13:16:09.220Z,41.97
2022-12-18T13:18:37.195Z,37.70
2022-12-18T13:21:34.398Z,46.92
2022-12-18T13:24:31.220Z,60.42
2022-12-18T13:26:59.056Z,42.65
2022-12-18T13:29:45.045Z,40.22
2022-12-18T13:32:25.706Z,46.08
2022-12-18T13:35:27.373Z,52.95
2022-12-18T13:37:56.399Z,45.20
2022-12-18T13:40:48.632Z,53.55
2022-12-18T13:43:18.887Z,32.85
2022-12-18T13:45:50.969Z,57.75
2022-12-18T13:48:23.184Z,50.70
2022-12-18T13:50:59.825Z,43.65
2022-12-18T13:53:51.800Z,52.33
2022-12-18T13:56:30.157Z,48.15
2022-12-18T13:59:25.924Z,56.70
2022-12-18T14:01:53.791Z,36.83
2022-12-18T14:04:30.779Z,49.72
2022-12-18T14:07:08.495Z,45.17
2022-12-18T14:09:42.091Z,29.25
2022-12-18T14:12:48.654Z,25.80
2022-12-18T14:15:32.473Z,33.63
2022-12-18T14:18:16.465Z,53.05
2022-12-18T14:20:52.926Z,32.15
2022-12-18T14:23:38.386Z,28.08
2022-12-18T14:26:31.404Z,43.42
2022-12-18T14:29:20.519Z,50.08
2022-12-18T14:32:25.565Z,62.60
2022-12-18T14:34:56.307Z,42.45
2022-12-18T14:37:28.579Z,58.60
2022-12-18T14:40:11.403Z,34.20
2022-12-18T14:42:39.305Z,30.00
2022-12-18T14:45:47.573Z,32.80
2022-12-18T14:48:34.489Z,34.53
2022-12-18T14:51:22.698Z,29.08
2022-12-18T14:54:09.223Z,27.35
2022-12-18T14:56:45.851Z,30.55
2022-12-18T14:59:23.991Z,32.78
2022-12-18T15:01:54.856Z,35.50
2022-12-18T15:04:36.800Z,32.28
2022-12-18T15:07:10.728Z,30.70
2022-12-18T15:09:41.346Z,43.38
2022-12-18T15:12:44.890Z,38.13
2022-12-18T15:15:34.134Z,33.63
2022-12-18T15:18:13.264Z,33.70
2022-12-18T15:21:20.079Z,62.97
2022-12-18T15:23:53.354Z,44.95
2022-12-18T15:26:22.837Z,45.90
2022-12-18T15:28:59.545Z,45.38
2022-12-18T15:31:38.801Z,35.75
2022-12-18T15:34:09.094Z,32.90
2022-12-18T15:36:38.241Z,35.97
2022-12-18T15:39:07.072Z,60.35
2022-12-18T15:41:37.148Z,51.20
2022-12-18T15:44:25.172Z,47.53
2022-12-18T15:46:52.797Z,48.50
2022-12-18T15:49:20.484Z,50.97
2022-12-18T15:51:54.719Z,53.33
2022-12-18T15:54:42.839Z,44.47
2022-12-18T15:57:26.444Z,42.05
2022-12-18T15:59:59.195Z,47.83
2022-12-18T16:02:28.763Z,51.20
2022-12-18T16:04:57.036Z,61.42
2022-12-18T16:07:28.108Z,45.90
2022-12-18T16:09:58.839Z,46.30
2022-12-18T16:12:28.061Z,47.85
2022-12-18T16:14:55.574Z,56.90
2022-12-18T16:17:23.157Z,47.67
2022-12-18T16:19:50.678Z,58.55
2022-12-18T16:22:30.268Z,51.45
2022-12-18T16:24:58.698Z,64.50
2022-12-18T16:27:26.759Z,55.58
2022-12-18T16:29:54.420Z,52.47
2022-12-18T16:32:23.589Z,56.17
2022-12-18T16:34:52.212Z,52.85
2022-12-18T16:37:20.008Z,54.20
2022-12-18T16:39:50.645Z,49.53
2022-12-18T16:42:21.107Z,45.40
2022-12-18T16:44:50.398Z,52.67
2022-12-18T16:47:19.092Z,54.55
2022-12-18T16:49:47.259Z,36.38
2022-12-18T16:52:14.925Z,40.65
2022-12-18T16:54:42.475Z,41.47
2022-12-18T16:57:14.137Z,51.67
2022-12-18T16:59:41.880Z,38.45
2022-12-18T17:02:26.707Z,42.13
2022-12-18T17:04:58.148Z,38.97
2022-12-18T17:07:28.166Z,39.28
2022-12-18T17:09:56.684Z,35.75
2022-12-18T17:12:25.002Z,41.65
2022-12-18T17:14:52.693Z,40.53
2022-12-18T17:17:22.276Z,48.72
2022-12-18T17:19:52.466Z,48.22
2022-12-18T17:22:23.183Z,41.35
2022-12-18T17:24:50.738Z,42.78
2022-12-18T17:27:18.388Z,42.35
2022-12-18T17:29:48.372Z,39.80
2022-12-18T17:32:18.114Z,41.70
2022-12-18T17:34:46.584Z,39.10
2022-12-18T17:37:14.542Z,50.08
2022-12-18T17:39:42.302Z,47.33
2022-12-18T17:42:15.175Z,42.13
2022-12-18T17:44:44.464Z,51.20
2022-12-18T17:47:14.401Z,51.83
2022-12-18T17:49:42.084Z,49.67
2022-12-18T17:52:10.373Z,52.67
2022-12-18T17:54:41.437Z,55.30
2022-12-18T17:57:09.084Z,49.70
2022-12-18T17:59:36.773Z,52.78
2022-12-18T18:02:04.569Z,46.00
2022-12-18T18:04:32.339Z,44.78
2022-12-18T18:06:59.823Z,61.33
2022-12-18T18:09:27.577Z,61.28
2022-12-18T18:12:13.686Z,65.83
2022-12-18T18:14:41.360Z,50.88
2022-12-18T18:17:08.942Z,60.70
2022-12-18T18:19:36.556Z,58.28
2022-12-18T18:22:04.219Z,57.15
2022-12-18T18:24:33.718Z,88.70
2022-12-18T18:27:01.763Z,102.15
2022-12-18T18:29:30.595Z,91.82
2022-12-18T18:31:59.199Z,121.55
2022-12-18T18:34:30.951Z,113.75
2022-12-18T18:36:59.200Z,123.80
2022-12-18T18:39:27.620Z,104.65
2022-12-18T18:41:55.659Z,102.03
2022-12-18T18:44:26.374Z,101.03
2022-12-18T18:46:58.681Z,111.55
2022-12-18T18:49:28.393Z,108.05
2022-12-18T18:51:58.030Z,103.65
2022-12-18T18:54:27.266Z,111.38
2022-12-18T18:59:43.623Z,165.88
2022-12-18T19:02:15.214Z,108.57
2022-12-18T19:04:43.127Z,87.38
2022-12-18T19:07:24.047Z,91.18
2022-12-18T19:10:04.057Z,95.80
2022-12-18T19:12:52.998Z,110.80
2022-12-18T19:15:22.714Z,99.70
2022-12-18T19:17:50.705Z,116.65
2022-12-18T19:20:18.900Z,87.15
2022-12-18T19:22:47.934Z,95.85
2022-12-18T19:25:40.197Z,105.55
2022-12-18T19:28:15.834Z,93.28
2022-12-18T19:30:56.058Z,101.25
2022-12-18T19:33:43.101Z,81.60
2022-12-18T19:36:19.557Z,86.03
2022-12-18T19:38:49.893Z,101.53
2022-12-18T19:41:21.497Z,92.50
2022-12-18T19:43:50.304Z,78.20
2022-12-18T19:46:20.938Z,87.43
2022-12-18T19:48:49.997Z,72.90
2022-12-18T19:51:25.708Z,80.20
2022-12-18T19:53:58.764Z,76.80
2022-12-18T19:56:32.443Z,72.70
2022-12-18T19:59:00.756Z,114.07
2022-12-18T20:01:30.347Z,106.38
2022-12-18T20:03:59.750Z,113.60
2022-12-18T20:06:47.262Z,123.65
2022-12-18T20:09:15.286Z,121.07
2022-12-18T20:11:43.134Z,104.95
2022-12-18T20:14:13.129Z,85.50
2022-12-18T20:16:41.888Z,115.45
2022-12-18T20:19:12.509Z,94.57
2022-12-18T20:21:40.443Z,98.40
2022-12-18T20:24:08.785Z,103.40
2022-12-18T20:26:36.783Z,109.70
2022-12-18T20:29:04.565Z,101.85
2022-12-18T20:31:32.538Z,115.83
2022-12-18T20:34:02.796Z,150.43
2022-12-18T20:36:34.078Z,146.73
2022-12-18T20:39:05.497Z,114.90
2022-12-18T20:41:38.277Z,108.13
2022-12-18T20:44:22.715Z,142.38
2022-12-18T20:46:59.176Z,125.70
2022-12-18T20:49:28.517Z,87.53
2022-12-18T20:51:58.161Z,94.82
2022-12-18T20:54:27.763Z,90.45
2022-12-18T20:56:56.962Z,86.38
2022-12-18T20:59:25.723Z,80.82
2022-12-18T21:01:54.022Z,67.93
2022-12-18T21:04:22.469Z,74.28
2022-12-18T21:06:55.671Z,77.13
2022-12-18T21:09:28.251Z,65.40
2022-12-18T21:12:42.592Z,72.10
2022-12-18T21:15:11.789Z,63.95
2022-12-18T21:17:44.764Z,69.60
2022-12-18T21:20:17.773Z,69.18
2022-12-18T21:22:49.170Z,72.13
2022-12-18T21:25:16.864Z,67.25
2022-12-18T21:27:44.439Z,65.83
2022-12-18T21:30:13.599Z,72.60
2022-12-18T21:32:41.419Z,71.85
2022-12-18T21:35:09.493Z,77.53
2022-12-18T21:37:37.228Z,81.28
2022-12-18T21:40:06.401Z,78.83
2022-12-18T21:42:52.949Z,86.53
2022-12-18T21:45:20.509Z,76.82
2022-12-18T21:47:48.145Z,87.30
2022-12-18T21:50:15.975Z,88.13
2022-12-18T21:52:43.496Z,95.47
2022-12-18T21:55:11.162Z,98.47
2022-12-18T21:57:39.433Z,75.00
2022-12-18T22:00:12.503Z,77.97
2022-12-18T22:03:00.503Z,90.10
2022-12-18T22:05:36.560Z,83.57
2022-12-18T22:08:04.472Z,91.63
2022-12-18T22:10:32.420Z,101.60
2022-12-18T22:12:59.974Z,98.20
2022-12-18T22:15:27.653Z,135.65
2022-12-18T22:18:00.335Z,134.17
2022-12-18T22:20:29.976Z,149.80
2022-12-18T22:22:58.856Z,134.73
2022-12-18T22:25:28.658Z,173.80
2022-12-18T22:28:15.098Z,166.50
2022-12-18T22:30:43.765Z,178.90
2022-12-18T22:33:11.401Z,171.43
2022-12-18T22:35:39.128Z,190.52
2022-12-18T22:38:06.757Z,202.00
2022-12-18T22:40:34.312Z,205.57
2022-12-18T22:43:01.837Z,211.23
2022-12-18T22:45:29.440Z,205.50
2022-12-18T22:47:57.322Z,214.15
2022-12-18T22:50:24.833Z,203.73
2022-12-18T22:52:52.467Z,207.30
2022-12-18T22:55:20.493Z,233.30
2022-12-18T22:57:49.155Z,236.85
2022-12-18T23:00:24.330Z,226.52
2022-12-18T23:03:00.316Z,201.07
2022-12-18T23:05:30.639Z,240.30
2022-12-18T23:07:58.708Z,148.07
2022-12-18T23:12:54.835Z,152.20
2022-12-18T23:15:27.731Z,136.75
2022-12-18T23:17:59.925Z,217.77
2022-12-18T23:20:28.383Z,233.90
2022-12-18T23:22:55.967Z,139.13
2022-12-18T23:25:25.092Z,135.85
2022-12-18T23:27:52.829Z,160.60
2022-12-18T23:30:20.407Z,133.40
2022-12-18T23:32:48.399Z,117.40
2022-12-18T23:35:17.238Z,113.40
2022-12-18T23:37:59.168Z,169.40
2022-12-18T23:40:29.453Z,159.43
2022-12-18T23:42:57.263Z,123.25
2022-12-18T23:45:24.868Z,103.93
2022-12-18T23:47:52.398Z,89.65
2022-12-18T23:50:23.615Z,159.32
2022-12-18T23:53:02.150Z,123.65
2022-12-18T23:55:39.741Z,98.60
2022-12-18T23:58:20.253Z,110.63
